Time;durP1;ratioP1;P1;durP2;ratioP2;P2;SDS_P1;SDS_P2;PMS_P1;PMS_P2;Temp;Humidity;BMP_temperature;BMP_pressure;BME280_temperature;BME280_humidity;BME280_pressure;Samples;Min_cycle;Max_cycle;Signal;HPM_P1;HPM_P2
2024/02/21 00:00:57;;;;;;;39.77;27.03;;;8.50;95.80;;;;;;5051524;28;20214;-58
2024/02/21 00:03:24;;;;;;;40.03;28.60;;;8.40;95.80;;;;;;5053398;28;20202;-58
2024/02/21 00:05:51;;;;;;;44.07;27.63;;;8.40;95.90;;;;;;5052804;28;20254;-58
2024/02/21 00:08:18;;;;;;;47.53;30.87;;;8.40;95.90;;;;;;5054050;28;20660;-58
2024/02/21 00:10:45;;;;;;;47.00;29.20;;;8.40;95.90;;;;;;5053328;28;20647;-58
2024/02/21 00:13:13;;;;;;;45.00;28.47;;;8.40;95.90;;;;;;5053934;28;20277;-58
2024/02/21 00:15:40;;;;;;;44.13;29.07;;;8.40;96.00;;;;;;5053584;28;20199;-58
2024/02/21 00:18:08;;;;;;;40.47;27.13;;;8.40;96.00;;;;;;5049285;28;20207;-58
2024/02/21 00:20:35;;;;;;;43.30;28.30;;;8.40;96.00;;;;;;5052652;28;20301;-58
2024/02/21 00:23:02;;;;;;;42.47;28.43;;;8.40;96.00;;;;;;5051283;28;20217;-58
2024/02/21 00:25:29;;;;;;;41.10;27.30;;;8.40;96.00;;;;;;5052127;28;20212;-59
2024/02/21 00:27:56;;;;;;;37.67;25.83;;;8.30;95.90;;;;;;5048687;28;20623;-58
2024/02/21 00:30:23;;;;;;;35.07;23.90;;;8.30;95.90;;;;;;5050793;28;20616;-58
2024/02/21 00:32:50;;;;;;;37.83;25.63;;;8.30;95.90;;;;;;5050749;28;20205;-57
2024/02/21 00:35:17;;;;;;;38.50;25.43;;;8.30;95.90;;;;;;5051497;28;20210;-58
2024/02/21 00:37:44;;;;;;;43.63;27.80;;;8.20;95.80;;;;;;5051129;28;20212;-57
2024/02/21 00:40:12;;;;;;;52.33;32.07;;;8.20;95.70;;;;;;5050483;28;20203;-58
2024/02/21 00:42:39;;;;;;;41.63;28.43;;;8.10;95.70;;;;;;5051262;28;20208;-58
2024/02/21 00:45:07;;;;;;;48.63;31.43;;;8.10;95.90;;;;;;5051943;28;20199;-58
2024/02/21 00:47:34;;;;;;;46.97;31.03;;;8.00;96.00;;;;;;5049136;28;20212;-58
2024/02/21 00:50:02;;;;;;;50.40;32.03;;;8.00;96.10;;;;;;5051992;28;20211;-58
2024/02/21 00:52:31;;;;;;;46.90;30.93;;;8.00;96.20;;;;;;5051648;28;20203;-58
2024/02/21 00:54:58;;;;;;;51.13;33.07;;;8.00;96.40;;;;;;5052009;28;20202;-58
2024/02/21 00:57:25;;;;;;;41.60;29.03;;;8.00;96.40;;;;;;5052082;28;20215;-58
2024/02/21 00:59:52;;;;;;;48.03;29.87;;;8.00;96.50;;;;;;5053319;28;20209;-58
2024/02/21 01:02:19;;;;;;;41.67;27.17;;;7.90;96.60;;;;;;5050812;28;20203;-58
2024/02/21 01:04:46;;;;;;;45.67;28.00;;;7.90;96.60;;;;;;5050988;28;20211;-58
2024/02/21 01:07:13;;;;;;;47.53;27.50;;;7.80;96.60;;;;;;5050179;28;20218;-58
2024/02/21 01:09:40;;;;;;;45.47;28.60;;;7.80;96.60;;;;;;5049893;28;20555;-58
2024/02/21 01:12:07;;;;;;;51.37;30.80;;;7.80;96.60;;;;;;5050953;28;20305;-58
2024/02/21 01:14:35;;;;;;;54.83;34.00;;;7.80;96.60;;;;;;5051513;28;20203;-57
2024/02/21 01:17:02;;;;;;;59.37;35.70;;;7.70;96.70;;;;;;5046584;28;20214;-58
2024/02/21 01:19:29;;;;;;;63.27;38.90;;;7.70;96.80;;;;;;5048226;28;20265;-58
2024/02/21 01:21:56;;;;;;;62.53;38.37;;;7.70;96.80;;;;;;5049722;28;20292;-58
2024/02/21 01:24:24;;;;;;;58.53;33.67;;;7.70;96.90;;;;;;5047072;28;20202;-57
2024/02/21 01:26:51;;;;;;;63.33;36.23;;;7.70;97.00;;;;;;5049962;28;20225;-58
2024/02/21 01:29:18;;;;;;;38.47;25.53;;;7.70;97.00;;;;;;5047896;28;20232;-58
2024/02/21 01:31:45;;;;;;;55.77;33.10;;;7.80;97.00;;;;;;5050366;28;20267;-58
2024/02/21 01:34:12;;;;;;;55.60;34.03;;;7.80;96.90;;;;;;5050840;28;20319;-58
2024/02/21 01:36:41;;;;;;;60.93;35.30;;;7.70;96.80;;;;;;5049297;28;20240;-58
2024/02/21 01:39:08;;;;;;;59.03;35.50;;;7.70;96.80;;;;;;5050719;28;20209;-58
2024/02/21 01:41:35;;;;;;;54.93;35.97;;;7.70;96.80;;;;;;5050989;28;20198;-58
2024/02/21 01:44:02;;;;;;;55.37;32.93;;;7.70;96.80;;;;;;5052229;28;20206;-58
2024/02/21 01:46:30;;;;;;;58.97;35.60;;;7.60;96.80;;;;;;5052394;28;20209;-58
2024/02/21 01:48:58;;;;;;;50.23;32.53;;;7.60;96.70;;;;;;5052791;28;20200;-58
2024/02/21 01:51:26;;;;;;;54.37;35.70;;;7.50;96.70;;;;;;5049302;28;20196;-59
2024/02/21 01:53:55;;;;;;;48.60;32.53;;;7.50;96.80;;;;;;5044030;28;20237;-58
2024/02/21 01:56:22;;;;;;;55.47;33.13;;;7.40;96.80;;;;;;5050342;28;20214;-58
2024/02/21 01:58:51;;;;;;;57.87;35.87;;;7.40;96.80;;;;;;5051369;28;20197;-58
2024/02/21 02:01:18;;;;;;;59.90;36.00;;;7.40;96.80;;;;;;5046350;28;20205;-58
2024/02/21 02:03:49;;;;;;;61.20;36.17;;;7.30;96.80;;;;;;5049227;28;20273;-59
2024/02/21 02:06:16;;;;;;;60.57;36.87;;;7.30;96.80;;;;;;5047369;28;20199;-58
2024/02/21 02:08:44;;;;;;;56.73;33.07;;;7.30;96.90;;;;;;5052106;28;20627;-58
2024/02/21 02:11:14;;;;;;;59.20;37.40;;;7.20;96.80;;;;;;5048746;28;20577;-58
2024/02/21 02:13:41;;;;;;;62.83;38.20;;;7.20;96.80;;;;;;5049869;28;20622;-58
2024/02/21 02:16:08;;;;;;;63.33;38.73;;;7.20;96.80;;;;;;5050822;28;20205;-58
2024/02/21 02:18:35;;;;;;;58.90;35.57;;;7.20;96.90;;;;;;5050889;28;20202;-58
2024/02/21 02:21:13;;;;;;;66.87;42.00;;;7.10;96.90;;;;;;5049163;28;20207;-58
2024/02/21 02:23:42;;;;;;;70.73;41.67;;;7.10;96.90;;;;;;5052319;28;20651;-58
2024/02/21 02:26:09;;;;;;;67.90;38.43;;;7.10;96.90;;;;;;5049465;28;20205;-58
2024/02/21 02:28:36;;;;;;;64.33;39.97;;;7.10;97.00;;;;;;5051602;28;20242;-58
2024/02/21 02:31:03;;;;;;;67.70;40.80;;;7.10;97.00;;;;;;5051324;28;20209;-58
2024/02/21 02:33:30;;;;;;;60.73;37.47;;;7.10;97.00;;;;;;5050035;28;20238;-58
2024/02/21 02:35:58;;;;;;;62.70;37.40;;;7.10;97.00;;;;;;5048560;28;20191;-58
2024/02/21 02:38:25;;;;;;;61.67;38.00;;;7.10;97.00;;;;;;5049879;28;20229;-58
2024/02/21 02:40:52;;;;;;;57.70;35.30;;;7.10;97.00;;;;;;5050431;28;20219;-58
2024/02/21 02:43:20;;;;;;;65.20;40.03;;;7.10;97.00;;;;;;5046756;28;20290;-58
2024/02/21 02:45:47;;;;;;;75.57;38.83;;;7.10;96.90;;;;;;5048624;28;20636;-58
2024/02/21 02:48:14;;;;;;;56.13;34.13;;;7.10;97.00;;;;;;5048391;28;20230;-58
2024/02/21 02:50:41;;;;;;;54.70;34.70;;;7.10;97.00;;;;;;5048211;28;20616;-58
2024/02/21 02:53:08;;;;;;;64.10;37.90;;;7.10;96.90;;;;;;5049531;28;20194;-58
2024/02/21 02:55:35;;;;;;;61.70;38.07;;;7.10;96.90;;;;;;5046120;28;20690;-58
2024/02/21 02:58:03;;;;;;;73.40;42.37;;;7.00;96.80;;;;;;5050073;28;20215;-58
2024/02/21 03:00:30;;;;;;;77.60;43.40;;;7.00;96.80;;;;;;5050408;28;20758;-58
2024/02/21 03:02:57;;;;;;;71.87;43.37;;;7.00;96.80;;;;;;5048488;28;20200;-58
2024/02/21 03:05:24;;;;;;;77.17;42.80;;;7.00;96.90;;;;;;5047116;28;20285;-58
2024/02/21 03:07:52;;;;;;;63.93;37.90;;;7.00;97.00;;;;;;5048209;28;20206;-58
2024/02/21 03:10:19;;;;;;;62.73;36.67;;;7.00;97.00;;;;;;5053396;28;20207;-58
2024/02/21 03:12:47;;;;;;;59.23;37.17;;;6.90;96.90;;;;;;5053474;28;20551;-58
2024/02/21 03:15:14;;;;;;;67.23;37.23;;;6.90;96.90;;;;;;5053653;28;20198;-58
2024/02/21 03:17:42;;;;;;;74.70;43.50;;;6.90;96.80;;;;;;5051690;28;20256;-58
2024/02/21 03:20:11;;;;;;;76.27;44.90;;;6.90;96.80;;;;;;5054668;28;20288;-58
2024/02/21 03:22:40;;;;;;;74.67;44.13;;;6.90;96.80;;;;;;5055428;28;20205;-58
2024/02/21 03:25:10;;;;;;;75.73;41.93;;;6.80;96.70;;;;;;5049462;28;20207;-58
2024/02/21 03:27:38;;;;;;;67.53;40.87;;;6.90;96.80;;;;;;5050162;28;20632;-58
2024/02/21 03:30:05;;;;;;;83.90;45.97;;;6.90;96.90;;;;;;5053202;28;20312;-58
2024/02/21 03:32:32;;;;;;;83.37;46.37;;;6.80;97.00;;;;;;5053565;28;20222;-58
2024/02/21 03:35:00;;;;;;;85.63;48.20;;;6.80;97.10;;;;;;5052199;28;20245;-58
2024/02/21 03:37:27;;;;;;;62.53;37.10;;;6.80;97.20;;;;;;5051982;28;20205;-58
2024/02/21 03:39:54;;;;;;;58.63;35.17;;;6.80;97.10;;;;;;5052343;28;20202;-58
2024/02/21 03:42:21;;;;;;;58.87;35.13;;;6.80;97.10;;;;;;5051583;28;20215;-58
2024/02/21 03:44:48;;;;;;;64.27;39.20;;;6.80;97.00;;;;;;5048805;28;20203;-58
2024/02/21 03:47:15;;;;;;;73.67;41.73;;;6.70;97.00;;;;;;5054479;28;20219;-58
2024/02/21 03:49:42;;;;;;;72.87;41.83;;;6.70;96.90;;;;;;5050072;28;20815;-58
2024/02/21 03:52:10;;;;;;;65.93;38.10;;;6.70;96.90;;;;;;5050060;28;20207;-58
2024/02/21 03:54:37;;;;;;;59.07;36.20;;;6.70;96.90;;;;;;5052292;28;20202;-58
2024/02/21 03:57:06;;;;;;;72.53;42.30;;;6.60;96.90;;;;;;5051748;28;20266;-58
2024/02/21 03:59:33;;;;;;;74.43;41.13;;;6.60;96.80;;;;;;5053149;28;20200;-57
2024/02/21 04:02:00;;;;;;;76.90;43.47;;;6.60;96.80;;;;;;5051968;28;20196;-58
2024/02/21 04:04:28;;;;;;;78.87;44.53;;;6.60;96.90;;;;;;5054487;28;20229;-58
2024/02/21 04:06:55;;;;;;;82.33;47.43;;;6.50;96.80;;;;;;5053640;28;20204;-58
2024/02/21 04:09:23;;;;;;;63.60;38.20;;;6.50;96.90;;;;;;5052840;28;20280;-58
2024/02/21 04:11:50;;;;;;;78.03;42.23;;;6.40;97.00;;;;;;5048463;28;20198;-57
2024/02/21 04:14:17;;;;;;;81.10;44.53;;;6.40;97.20;;;;;;5047834;28;20520;-58
2024/02/21 04:16:44;;;;;;;65.80;37.90;;;6.40;97.30;;;;;;5051995;28;20651;-58
2024/02/21 04:19:12;;;;;;;62.60;37.63;;;6.40;97.20;;;;;;5050269;28;20209;-58
2024/02/21 04:21:39;;;;;;;61.50;36.70;;;6.30;97.20;;;;;;5049012;28;20227;-58
2024/02/21 04:24:06;;;;;;;62.50;37.70;;;6.30;97.30;;;;;;5051698;28;20555;-58
2024/02/21 04:26:34;;;;;;;76.13;42.07;;;6.20;97.30;;;;;;5050171;28;20211;-58
2024/02/21 04:29:01;;;;;;;69.63;39.23;;;6.20;97.20;;;;;;5048406;28;20670;-58
2024/02/21 04:31:29;;;;;;;63.07;38.60;;;6.20;97.20;;;;;;5049207;28;20224;-58
2024/02/21 04:33:57;;;;;;;68.90;42.17;;;6.10;97.30;;;;;;5049588;28;20238;-58
2024/02/21 04:36:25;;;;;;;66.03;39.73;;;6.10;97.30;;;;;;5037687;28;20207;-59
2024/02/21 04:38:53;;;;;;;66.17;38.77;;;6.10;97.10;;;;;;5054158;28;20291;-58
2024/02/21 04:41:21;;;;;;;65.90;36.90;;;6.00;97.10;;;;;;5036979;28;20211;-58
2024/02/21 04:43:49;;;;;;;78.70;43.73;;;5.90;97.10;;;;;;5050578;28;20225;-58
2024/02/21 04:46:17;;;;;;;69.83;39.10;;;5.90;97.20;;;;;;5052872;28;20295;-58
2024/02/21 04:48:44;;;;;;;68.07;39.87;;;5.90;97.30;;;;;;5051804;28;20527;-58
2024/02/21 04:51:14;;;;;;;69.73;38.97;;;5.90;97.30;;;;;;5053804;28;20636;-59
2024/02/21 04:53:41;;;;;;;68.13;37.70;;;5.90;97.40;;;;;;5037144;28;20573;-58
2024/02/21 04:56:10;;;;;;;72.43;40.83;;;5.90;97.40;;;;;;5052369;28;20198;-58
2024/02/21 04:58:39;;;;;;;76.80;41.70;;;5.90;97.40;;;;;;5042709;28;20294;-59
2024/02/21 05:01:07;;;;;;;77.03;42.03;;;5.90;97.40;;;;;;5053701;28;20746;-59
2024/02/21 05:03:35;;;;;;;72.23;41.13;;;5.90;97.40;;;;;;5047575;28;20203;-59
2024/02/21 05:06:03;;;;;;;74.03;42.00;;;5.80;97.40;;;;;;5067516;28;20694;-60
2024/02/21 05:08:32;;;;;;;76.80;44.00;;;5.80;97.40;;;;;;5050551;28;20206;-58
2024/02/21 05:11:00;;;;;;;69.27;39.53;;;5.80;97.40;;;;;;5048950;28;20206;-58
2024/02/21 05:13:28;;;;;;;58.07;35.67;;;5.80;97.40;;;;;;5046088;28;20276;-58
2024/02/21 05:15:56;;;;;;;74.70;42.17;;;5.80;97.50;;;;;;5060367;28;20268;-58
2024/02/21 05:18:24;;;;;;;71.43;40.70;;;5.80;97.60;;;;;;5048580;28;20206;-58
2024/02/21 05:20:52;;;;;;;69.13;39.00;;;5.80;97.70;;;;;;5051711;28;20203;-58
2024/02/21 05:23:20;;;;;;;75.57;41.63;;;5.80;97.70;;;;;;5052279;28;20210;-58
2024/02/21 05:25:49;;;;;;;60.63;36.07;;;5.80;97.70;;;;;;5052020;28;20203;-58
2024/02/21 05:28:17;;;;;;;59.07;38.03;;;5.80;97.80;;;;;;5031766;28;20222;-59
2024/02/21 05:30:45;;;;;;;62.33;35.57;;;5.80;97.80;;;;;;5050836;28;20561;-59
2024/02/21 05:33:20;;;;;;;61.10;35.33;;;5.80;97.80;;;;;;5035755;28;20238;-59
2024/02/21 05:35:50;;;;;;;59.60;36.03;;;5.80;97.70;;;;;;5067448;28;20197;-58
2024/02/21 05:38:18;;;;;;;53.80;31.67;;;5.70;97.50;;;;;;5020459;28;20203;-59
2024/02/21 05:40:46;;;;;;;50.60;30.27;;;5.70;97.40;;;;;;5052441;28;20264;-59
2024/02/21 05:43:14;;;;;;;45.23;27.47;;;5.60;97.30;;;;;;5052340;28;20233;-59
2024/02/21 05:45:43;;;;;;;44.93;27.40;;;5.60;97.20;;;;;;5035799;28;20274;-58
2024/02/21 05:48:12;;;;;;;58.13;34.03;;;5.50;97.00;;;;;;5036513;28;20248;-59
2024/02/21 05:50:40;;;;;;;57.40;32.80;;;5.50;96.90;;;;;;5048849;28;20219;-59
2024/02/21 05:53:08;;;;;;;53.20;33.70;;;5.50;96.90;;;;;;5044573;28;20203;-59
2024/02/21 05:55:36;;;;;;;51.57;31.57;;;5.40;97.00;;;;;;5050196;28;20209;-59
2024/02/21 05:58:05;;;;;;;59.40;34.13;;;5.40;97.10;;;;;;5050982;28;20205;-59
2024/02/21 06:00:34;;;;;;;72.00;39.10;;;5.40;97.10;;;;;;5030789;28;20636;-58
2024/02/21 06:03:02;;;;;;;65.33;37.57;;;5.40;97.10;;;;;;5032637;28;20214;-59
2024/02/21 06:05:30;;;;;;;59.23;36.53;;;5.40;97.20;;;;;;5033965;28;20208;-59
2024/02/21 06:07:59;;;;;;;62.80;35.37;;;5.40;97.20;;;;;;5050941;28;20549;-58
2024/02/21 06:10:27;;;;;;;67.20;36.80;;;5.40;97.40;;;;;;5051048;28;20219;-59
2024/02/21 06:12:55;;;;;;;59.50;35.47;;;5.40;97.40;;;;;;5035339;28;20203;-58
2024/02/21 06:15:23;;;;;;;60.67;34.13;;;5.40;97.50;;;;;;5051335;28;20202;-59
2024/02/21 06:17:51;;;;;;;63.63;35.20;;;5.50;97.50;;;;;;5044856;28;20217;-59
2024/02/21 06:20:19;;;;;;;68.80;37.53;;;5.50;97.60;;;;;;5049997;28;20206;-59
2024/02/21 06:22:48;;;;;;;61.17;35.67;;;5.50;97.60;;;;;;5051840;28;20202;-58
2024/02/21 06:25:16;;;;;;;59.17;34.83;;;5.50;97.60;;;;;;5036357;28;20221;-59
2024/02/21 06:27:44;;;;;;;63.10;37.73;;;5.60;97.60;;;;;;5049337;28;20203;-59
2024/02/21 06:30:12;;;;;;;73.57;39.60;;;5.60;97.60;;;;;;5033670;28;20236;-58
2024/02/21 06:32:40;;;;;;;70.17;35.87;;;5.70;97.60;;;;;;5049971;28;20293;-58
2024/02/21 06:35:09;;;;;;;68.13;39.83;;;5.70;97.60;;;;;;5050705;28;20237;-59
2024/02/21 06:37:38;;;;;;;67.97;39.50;;;5.80;97.70;;;;;;5051391;28;20220;-59
2024/02/21 06:40:07;;;;;;;68.57;37.50;;;5.80;97.70;;;;;;5035633;28;20228;-58
2024/02/21 06:42:35;;;;;;;70.00;37.30;;;5.90;97.70;;;;;;5034673;28;20199;-59
2024/02/21 06:45:03;;;;;;;65.43;36.97;;;5.90;97.80;;;;;;5055821;28;20235;-59
2024/02/21 06:47:32;;;;;;;74.17;39.57;;;5.90;97.80;;;;;;5053800;28;20226;-59
2024/02/21 06:49:59;;;;;;;66.37;37.43;;;6.00;97.80;;;;;;5053830;28;20302;-59
2024/02/21 06:52:28;;;;;;;61.83;35.90;;;6.00;97.80;;;;;;5052740;28;20207;-59
2024/02/21 06:54:55;;;;;;;59.43;33.77;;;6.10;97.80;;;;;;5038569;28;20728;-58
2024/02/21 06:57:23;;;;;;;66.07;34.97;;;6.10;97.80;;;;;;5055853;28;20258;-59
2024/02/21 06:59:52;;;;;;;56.87;31.17;;;6.20;97.80;;;;;;5052851;28;20199;-59
2024/02/21 07:02:20;;;;;;;45.23;29.60;;;6.20;97.80;;;;;;5055444;28;20253;-59
2024/02/21 07:04:48;;;;;;;55.60;32.10;;;6.20;97.60;;;;;;5038409;28;20227;-59
2024/02/21 07:07:16;;;;;;;59.03;36.00;;;6.20;97.40;;;;;;5056353;28;20222;-59
2024/02/21 07:09:44;;;;;;;58.60;32.87;;;6.20;97.40;;;;;;5055690;28;20262;-59
2024/02/21 07:12:12;;;;;;;49.13;29.73;;;6.30;97.50;;;;;;5055530;28;20697;-59
2024/02/21 07:14:40;;;;;;;53.20;32.03;;;6.40;97.50;;;;;;5056067;28;20206;-59
2024/02/21 07:17:08;;;;;;;49.00;30.67;;;6.60;97.50;;;;;;5036193;28;20199;-59
2024/02/21 07:19:36;;;;;;;53.53;31.10;;;6.80;97.20;;;;;;5053977;28;20305;-59
2024/02/21 07:22:05;;;;;;;53.03;30.37;;;7.00;96.90;;;;;;5050157;28;20207;-59
2024/02/21 07:24:33;;;;;;;51.10;30.10;;;7.20;96.50;;;;;;5051077;28;20229;-59
2024/02/21 07:27:04;;;;;;;57.60;33.07;;;7.40;96.40;;;;;;5055152;28;20253;-59
2024/02/21 07:29:32;;;;;;;59.67;34.63;;;7.60;95.80;;;;;;5035850;28;20226;-59
2024/02/21 07:32:01;;;;;;;58.73;33.77;;;7.70;95.60;;;;;;5038001;28;20526;-59
2024/02/21 07:34:29;;;;;;;57.10;33.50;;;7.80;95.60;;;;;;5037466;28;20365;-59
2024/02/21 07:36:57;;;;;;;62.33;33.33;;;8.00;95.60;;;;;;5031703;28;20639;-59
2024/02/21 07:39:27;;;;;;;56.03;33.27;;;8.20;95.50;;;;;;5037262;28;20222;-59
2024/02/21 07:41:55;;;;;;;54.57;33.13;;;8.40;95.40;;;;;;5066248;28;20640;-59
2024/02/21 07:44:23;;;;;;;56.03;32.47;;;8.60;95.30;;;;;;5054386;28;20233;-59
2024/02/21 07:46:52;;;;;;;58.00;33.30;;;8.80;95.10;;;;;;5054365;28;20237;-59
2024/02/21 07:49:20;;;;;;;52.80;32.30;;;9.00;94.90;;;;;;5068075;28;20634;-59
2024/02/21 07:51:48;;;;;;;55.57;31.77;;;9.20;94.70;;;;;;5055419;28;20213;-59
2024/02/21 07:54:16;;;;;;;51.43;32.53;;;9.30;94.70;;;;;;5054662;28;20211;-59
2024/02/21 07:56:47;;;;;;;53.03;33.33;;;9.40;94.70;;;;;;5052621;28;20200;-59
2024/02/21 07:59:16;;;;;;;53.00;31.67;;;9.50;94.80;;;;;;5055247;28;20211;-59
2024/02/21 08:01:45;;;;;;;46.57;31.90;;;9.60;94.80;;;;;;5054123;28;20206;-59
2024/02/21 08:04:14;;;;;;;49.93;30.90;;;9.70;94.90;;;;;;5054890;28;20210;-59
2024/02/21 08:06:44;;;;;;;56.03;32.53;;;9.70;94.90;;;;;;5051393;28;20529;-59
2024/02/21 08:09:15;;;;;;;52.03;31.87;;;9.80;95.00;;;;;;5043374;28;20218;-60
2024/02/21 08:11:45;;;;;;;51.43;30.93;;;9.90;95.00;;;;;;5054013;28;20268;-59
2024/02/21 08:14:15;;;;;;;48.80;31.37;;;10.00;95.00;;;;;;5048275;28;20284;-58
2024/02/21 08:16:48;;;;;;;62.73;33.37;;;10.20;94.90;;;;;;5051874;28;20257;-59
2024/02/21 08:19:24;;;;;;;49.77;33.23;;;10.30;94.80;;;;;;5039452;28;20220;-59
2024/02/21 08:21:55;;;;;;;47.77;33.10;;;10.40;94.80;;;;;;5037497;28;20251;-59
2024/02/21 08:24:24;;;;;;;50.43;31.40;;;10.50;94.70;;;;;;5052376;28;20212;-58
2024/02/21 08:26:53;;;;;;;51.00;33.10;;;10.70;94.50;;;;;;5037171;28;20685;-59
2024/02/21 08:29:22;;;;;;;53.90;32.60;;;10.80;94.40;;;;;;5037274;28;20228;-58
2024/02/21 08:31:50;;;;;;;50.27;32.30;;;10.90;94.20;;;;;;5053463;28;20711;-59
2024/02/21 08:34:18;;;;;;;54.27;32.77;;;11.00;94.00;;;;;;5053551;28;20252;-58
2024/02/21 08:36:46;;;;;;;53.13;32.60;;;11.20;93.80;;;;;;5048597;28;20205;-58
2024/02/21 08:39:16;;;;;;;46.60;32.43;;;11.30;93.70;;;;;;5053409;28;20198;-58
2024/02/21 08:41:44;;;;;;;51.07;33.77;;;11.40;93.60;;;;;;5067368;28;20230;-58
2024/02/21 08:44:27;;;;;;;53.63;35.07;;;11.60;93.50;;;;;;5052995;28;20220;-58
2024/02/21 08:46:56;;;;;;;52.30;33.63;;;11.70;93.30;;;;;;5054328;28;20202;-58
2024/02/21 08:49:28;;;;;;;49.20;32.60;;;11.80;93.00;;;;;;5053447;28;20230;-58
2024/02/21 08:52:03;;;;;;;47.53;31.90;;;11.90;92.90;;;;;;5052924;28;20198;-58
2024/02/21 08:54:35;;;;;;;48.10;32.33;;;12.00;92.70;;;;;;5052796;28;20204;-58
2024/02/21 08:57:03;;;;;;;50.23;32.20;;;12.20;92.50;;;;;;5050178;28;20192;-58
2024/02/21 08:59:34;;;;;;;52.70;32.60;;;12.30;92.40;;;;;;5052898;28;20214;-58
2024/02/21 09:02:03;;;;;;;44.67;30.87;;;12.40;92.20;;;;;;5053113;28;20220;-59
2024/02/21 09:04:31;;;;;;;54.53;33.33;;;12.50;92.00;;;;;;5053195;28;20281;-59
2024/02/21 09:06:59;;;;;;;47.50;32.37;;;12.70;92.00;;;;;;5049505;28;20289;-58
2024/02/21 09:09:28;;;;;;;50.10;32.77;;;12.80;91.80;;;;;;5051251;28;20338;-59
2024/02/21 09:11:57;;;;;;;54.23;36.00;;;12.90;91.60;;;;;;5053208;28;20220;-58
2024/02/21 09:14:25;;;;;;;52.07;35.70;;;13.00;91.40;;;;;;5051942;28;20201;-58
2024/02/21 09:16:54;;;;;;;51.80;35.73;;;13.10;91.20;;;;;;5050230;28;20205;-58
2024/02/21 09:19:24;;;;;;;51.47;36.33;;;13.20;90.90;;;;;;5052436;28;20538;-58
2024/02/21 09:21:52;;;;;;;55.67;36.47;;;13.20;90.50;;;;;;5051431;28;20213;-58
2024/02/21 09:24:20;;;;;;;54.53;36.87;;;13.30;90.30;;;;;;5050353;28;20760;-58
2024/02/21 09:26:47;;;;;;;59.67;40.13;;;13.20;90.30;;;;;;5051753;28;20209;-58
2024/02/21 09:29:16;;;;;;;60.10;39.33;;;13.20;90.20;;;;;;5050075;28;20301;-59
2024/02/21 09:31:45;;;;;;;56.77;39.37;;;13.20;90.10;;;;;;5052672;28;20206;-58
2024/02/21 09:34:14;;;;;;;63.53;41.30;;;13.20;90.20;;;;;;5052921;28;20268;-59
2024/02/21 09:36:44;;;;;;;58.20;39.87;;;13.20;90.30;;;;;;5053400;28;20282;-59
2024/02/21 09:39:17;;;;;;;60.27;40.87;;;13.20;90.40;;;;;;5051229;28;20209;-58
2024/02/21 09:41:59;;;;;;;62.17;41.60;;;13.30;90.50;;;;;;5048388;28;20940;-59
2024/02/21 09:44:39;;;;;;;62.20;40.97;;;13.30;90.40;;;;;;5047615;28;20202;-59
2024/02/21 09:47:13;;;;;;;69.50;46.93;;;13.40;90.30;;;;;;5047755;28;20218;-58
2024/02/21 09:49:43;;;;;;;75.77;48.40;;;13.50;90.30;;;;;;5051837;28;20218;-58
2024/02/21 09:52:14;;;;;;;69.70;47.30;;;13.50;90.00;;;;;;5050895;28;20203;-59
2024/02/21 09:54:44;;;;;;;76.17;47.70;;;13.60;90.00;;;;;;5052543;28;20205;-58
2024/02/21 09:57:13;;;;;;;74.67;47.87;;;13.60;90.00;;;;;;5037537;28;20193;-58
2024/02/21 09:59:42;;;;;;;72.23;48.17;;;13.70;90.00;;;;;;5052054;28;20214;-59
2024/02/21 10:02:11;;;;;;;74.57;48.53;;;13.70;90.00;;;;;;5051323;28;20296;-59
2024/02/21 10:04:41;;;;;;;70.33;46.07;;;13.80;90.00;;;;;;5050464;28;20207;-59
2024/02/21 10:07:11;;;;;;;78.73;50.50;;;13.90;89.80;;;;;;5034394;28;20619;-59
2024/02/21 10:09:40;;;;;;;75.67;50.93;;;14.00;90.10;;;;;;5051780;28;20550;-59
2024/02/21 10:12:12;;;;;;;80.87;49.87;;;14.10;90.20;;;;;;5042940;28;20194;-59
2024/02/21 10:14:40;;;;;;;75.90;50.57;;;14.20;90.10;;;;;;5051856;28;20191;-59
2024/02/21 10:17:15;;;;;;;78.60;50.37;;;14.40;90.00;;;;;;5051264;28;20210;-59
2024/02/21 10:19:43;;;;;;;77.17;50.97;;;14.50;89.40;;;;;;5051139;28;20220;-59
2024/02/21 10:22:11;;;;;;;85.43;52.03;;;14.60;89.00;;;;;;5051708;28;20286;-59
2024/02/21 10:24:42;;;;;;;79.40;50.80;;;14.60;88.40;;;;;;5052052;28;20218;-59
2024/02/21 10:27:11;;;;;;;79.33;50.87;;;14.60;88.40;;;;;;5034342;28;20606;-59
2024/02/21 10:29:41;;;;;;;75.77;51.70;;;14.60;88.10;;;;;;5048850;28;20715;-59
2024/02/21 10:32:13;;;;;;;72.17;50.03;;;14.60;88.00;;;;;;5051390;28;20272;-58
2024/02/21 10:34:42;;;;;;;75.00;49.23;;;14.70;88.40;;;;;;5037382;28;20246;-58
2024/02/21 10:37:12;;;;;;;79.97;50.73;;;14.80;87.90;;;;;;5049262;28;20199;-59
2024/02/21 10:39:42;;;;;;;74.00;49.87;;;14.90;87.60;;;;;;5049543;28;20289;-58
2024/02/21 10:42:16;;;;;;;73.40;48.47;;;14.90;87.40;;;;;;5048343;28;20209;-58
2024/02/21 10:44:51;;;;;;;76.07;48.50;;;15.10;87.30;;;;;;5033181;28;20260;-58
2024/02/21 10:47:22;;;;;;;77.17;49.77;;;15.20;86.60;;;;;;5050345;28;20224;-58
2024/02/21 10:50:01;;;;;;;70.87;49.23;;;15.30;86.10;;;;;;5048215;28;20242;-58
2024/02/21 10:52:54;;;;;;;72.17;49.00;;;15.40;86.20;;;;;;5042442;28;20291;-58
2024/02/21 10:55:38;;;;;;;71.23;50.53;;;15.50;86.00;;;;;;5064239;28;20607;-58
2024/02/21 10:58:08;;;;;;;72.90;48.33;;;15.60;85.90;;;;;;5046158;28;20301;-59
2024/02/21 11:00:37;;;;;;;70.47;47.73;;;15.60;85.30;;;;;;5050480;28;20637;-59
2024/02/21 11:03:06;;;;;;;71.97;47.37;;;15.70;84.60;;;;;;5063952;28;20207;-59
2024/02/21 11:05:35;;;;;;;69.07;45.83;;;15.70;83.30;;;;;;5050871;28;20211;-59
2024/02/21 11:08:06;;;;;;;69.53;44.70;;;15.80;83.40;;;;;;5034859;28;20213;-59
2024/02/21 11:10:40;;;;;;;63.40;42.77;;;15.90;83.00;;;;;;5048807;28;20612;-59
2024/02/21 11:13:10;;;;;;;66.40;41.17;;;15.90;82.50;;;;;;5048198;28;20202;-58
2024/02/21 11:15:38;;;;;;;61.87;42.50;;;16.00;81.50;;;;;;5048194;28;20208;-59
2024/02/21 11:18:06;;;;;;;62.17;43.07;;;16.10;81.40;;;;;;5049094;28;20317;-59
2024/02/21 11:20:35;;;;;;;65.13;43.00;;;16.20;80.80;;;;;;5050294;28;20203;-59
2024/02/21 11:23:04;;;;;;;64.03;41.80;;;16.20;80.50;;;;;;5046793;28;20199;-59
2024/02/21 11:25:33;;;;;;;61.00;40.00;;;16.20;80.30;;;;;;5049839;28;20208;-59
2024/02/21 11:28:04;;;;;;;61.83;39.30;;;16.30;80.00;;;;;;5050326;28;20291;-59
2024/02/21 11:30:34;;;;;;;60.50;42.27;;;16.40;79.80;;;;;;5067148;28;20229;-59
2024/02/21 11:33:05;;;;;;;62.50;41.97;;;16.50;79.40;;;;;;5053923;28;20202;-59
2024/02/21 11:35:35;;;;;;;55.30;40.03;;;16.60;79.60;;;;;;5062185;28;20217;-59
2024/02/21 11:38:16;;;;;;;54.47;37.33;;;16.70;79.50;;;;;;5053788;28;20227;-59
2024/02/21 11:40:46;;;;;;;56.97;40.30;;;16.90;78.80;;;;;;5050997;28;20215;-59
2024/02/21 11:43:16;;;;;;;50.80;36.47;;;17.00;78.00;;;;;;5037792;28;20248;-59
2024/02/21 11:45:45;;;;;;;45.83;34.73;;;17.10;77.70;;;;;;5053455;28;20208;-59
2024/02/21 11:48:13;;;;;;;50.73;35.30;;;17.20;77.60;;;;;;5054677;28;20572;-59
2024/02/21 11:50:42;;;;;;;50.83;37.67;;;17.20;77.20;;;;;;5053570;28;20219;-58
2024/02/21 11:53:10;;;;;;;56.10;36.93;;;17.30;76.80;;;;;;5052529;28;20540;-58
2024/02/21 11:55:39;;;;;;;48.47;35.27;;;17.30;76.50;;;;;;5051614;28;20238;-58
2024/02/21 11:58:08;;;;;;;53.60;36.93;;;17.40;76.20;;;;;;5052050;28;20208;-58
2024/02/21 12:00:37;;;;;;;51.20;35.97;;;17.40;75.40;;;;;;5048716;28;20198;-59
2024/02/21 12:03:06;;;;;;;48.37;35.20;;;17.50;74.70;;;;;;5055102;28;20235;-58
2024/02/21 12:05:34;;;;;;;47.30;33.93;;;17.50;75.00;;;;;;5051425;28;20286;-58
2024/02/21 12:08:04;;;;;;;46.37;30.27;;;17.50;74.70;;;;;;5037399;28;20207;-59
2024/02/21 12:10:35;;;;;;;39.00;28.47;;;17.50;74.10;;;;;;5053201;28;20538;-59
2024/02/21 12:13:11;;;;;;;43.20;30.33;;;17.60;72.80;;;;;;5051196;28;20306;-59
2024/02/21 12:15:40;;;;;;;40.73;29.57;;;17.50;72.30;;;;;;5054277;28;20638;-59
2024/02/21 12:18:10;;;;;;;34.07;23.87;;;17.50;72.30;;;;;;5053670;28;20228;-59
2024/02/21 12:20:40;;;;;;;38.13;25.40;;;17.60;71.50;;;;;;5054114;28;20197;-59
2024/02/21 12:23:12;;;;;;;28.50;22.20;;;17.60;72.10;;;;;;5029879;28;20401;-59
2024/02/21 12:25:40;;;;;;;28.40;21.00;;;17.70;72.60;;;;;;5049481;28;20202;-59
2024/02/21 12:28:09;;;;;;;26.07;20.13;;;17.90;72.40;;;;;;5050827;28;20209;-59
2024/02/21 12:30:39;;;;;;;25.87;19.40;;;18.00;71.30;;;;;;5052239;28;20645;-59
2024/02/21 12:33:07;;;;;;;27.10;18.83;;;18.00;69.80;;;;;;5054165;28;20210;-59
2024/02/21 12:35:37;;;;;;;20.70;17.10;;;18.10;69.70;;;;;;5036718;28;20668;-58
2024/02/21 12:38:05;;;;;;;25.13;18.33;;;18.10;69.10;;;;;;5052514;28;20205;-59
2024/02/21 12:40:33;;;;;;;28.57;21.03;;;18.10;69.30;;;;;;5053789;28;20216;-59